createdAt,value
2022-10-17T00:01:07.174Z,6.40
2022-10-17T00:03:46.506Z,6.38
2022-10-17T00:06:22.392Z,6.36
2022-10-17T00:09:15.792Z,6.34
2022-10-17T00:12:02.260Z,6.31
2022-10-17T00:14:57.041Z,6.28
2022-10-17T00:17:43.334Z,6.27
2022-10-17T00:20:25.372Z,6.24
2022-10-17T00:23:01.178Z,6.21
2022-10-17T00:25:59.491Z,6.18
2022-10-17T00:28:56.140Z,6.14
2022-10-17T00:31:39.206Z,6.15
2022-10-17T00:34:31.425Z,6.14
2022-10-17T00:37:30.421Z,6.13
2022-10-17T00:40:11.389Z,6.12
2022-10-17T00:42:53.306Z,6.12
2022-10-17T00:45:30.407Z,6.09
2022-10-17T00:48:03.641Z,6.10
2022-10-17T00:50:34.211Z,6.09
2022-10-17T00:53:04.305Z,6.06
2022-10-17T00:55:36.320Z,6.04
2022-10-17T00:58:06.302Z,6.05
2022-10-17T01:00:34.386Z,6.07
2022-10-17T01:03:02.316Z,6.04
2022-10-17T01:05:30.353Z,6.04
2022-10-17T01:08:00.240Z,6.03
2022-10-17T01:10:39.357Z,6.01
2022-10-17T01:13:15.206Z,6.00
2022-10-17T01:16:15.805Z,6.00
2022-10-17T01:18:58.665Z,6.00
2022-10-17T01:21:46.543Z,5.98
2022-10-17T01:24:39.244Z,5.95
2022-10-17T01:27:18.254Z,5.94
2022-10-17T01:30:27.739Z,5.93
2022-10-17T01:33:18.728Z,5.93
2022-10-17T01:36:12.953Z,5.93
2022-10-17T01:39:14.933Z,5.92
2022-10-17T01:41:57.711Z,5.90
2022-10-17T01:44:46.395Z,5.89
2022-10-17T01:47:19.377Z,5.89
2022-10-17T01:49:51.773Z,5.87
2022-10-17T01:52:36.561Z,5.86
2022-10-17T01:55:11.920Z,5.84
2022-10-17T01:57:48.047Z,5.83
2022-10-17T02:00:21.579Z,5.80
2022-10-17T02:02:56.457Z,5.77
2022-10-17T02:05:29.325Z,5.74
2022-10-17T02:07:57.537Z,5.73
2022-10-17T02:10:49.411Z,5.71
2022-10-17T02:13:28.652Z,5.69
2022-10-17T02:16:05.287Z,5.69
2022-10-17T02:18:58.741Z,5.68
2022-10-17T02:21:44.198Z,5.68
2022-10-17T02:24:41.758Z,5.66
2022-10-17T02:27:37.802Z,5.65
2022-10-17T02:30:24.073Z,5.64
2022-10-17T02:33:11.690Z,5.63
2022-10-17T02:35:45.272Z,5.60
2022-10-17T02:38:16.689Z,5.59
2022-10-17T02:41:01.166Z,5.57
2022-10-17T02:44:27.313Z,5.56
2022-10-17T02:47:06.177Z,5.53
2022-10-17T02:49:41.332Z,5.48
2022-10-17T02:52:33.529Z,5.45
2022-10-17T02:55:17.787Z,5.45
2022-10-17T02:58:13.537Z,5.42
2022-10-17T03:00:47.821Z,5.38
2022-10-17T03:03:30.761Z,5.36
2022-10-17T03:06:02.625Z,5.33
2022-10-17T03:08:36.104Z,5.32
2022-10-17T03:11:48.763Z,5.31
2022-10-17T03:14:40.377Z,5.30
2022-10-17T03:17:25.897Z,5.29
2022-10-17T03:19:54.033Z,5.28
2022-10-17T03:22:22.083Z,5.28
2022-10-17T03:24:50.373Z,5.26
2022-10-17T03:27:18.473Z,5.26
2022-10-17T03:29:46.766Z,5.26
2022-10-17T03:32:15.961Z,5.26
2022-10-17T03:34:44.188Z,5.26
2022-10-17T03:37:12.305Z,5.26
2022-10-17T03:39:40.743Z,5.26
2022-10-17T03:42:09.116Z,5.26
2022-10-17T03:44:37.810Z,5.24
2022-10-17T03:47:08.159Z,5.23
2022-10-17T03:49:35.697Z,5.24
2022-10-17T03:52:03.709Z,5.23
2022-10-17T03:54:31.853Z,5.23
2022-10-17T03:57:02.501Z,5.20
2022-10-17T03:59:36.198Z,5.19
2022-10-17T04:02:06.135Z,5.19
2022-10-17T04:04:37.504Z,5.16
2022-10-17T04:13:36.870Z,5.11
2022-10-17T04:16:10.124Z,5.11
2022-10-17T04:18:40.446Z,5.07
2022-10-17T04:21:11.072Z,5.03
2022-10-17T04:23:39.670Z,5.00
2022-10-17T04:26:09.479Z,4.97
2022-10-17T04:31:10.064Z,4.95
2022-10-17T04:33:40.545Z,4.94
2022-10-17T04:36:16.267Z,4.92
2022-10-17T04:38:44.020Z,4.90
2022-10-17T04:41:16.750Z,4.89
2022-10-17T04:43:48.484Z,4.88
2022-10-17T04:46:16.085Z,4.87
2022-10-17T04:48:45.612Z,4.87
2022-10-17T04:51:18.797Z,4.89
2022-10-17T04:54:07.236Z,4.90
2022-10-17T04:56:36.555Z,4.92
2022-10-17T04:59:04.418Z,4.93
2022-10-17T05:01:33.654Z,5.00
2022-10-17T05:04:01.499Z,5.27
2022-10-17T05:06:31.076Z,5.65
2022-10-17T05:09:12.871Z,6.07
2022-10-17T05:11:43.147Z,6.45
2022-10-17T05:14:11.397Z,6.83
2022-10-17T05:16:39.462Z,7.15
2022-10-17T05:19:11.055Z,7.68
2022-10-17T05:21:41.150Z,8.19
2022-10-17T05:24:11.685Z,8.63
2022-10-17T05:26:40.875Z,9.17
2022-10-17T05:29:13.934Z,9.70
2022-10-17T05:31:44.135Z,10.18
2022-10-17T05:38:35.920Z,11.11
2022-10-17T05:41:10.107Z,11.66
2022-10-17T05:43:41.303Z,12.13
2022-10-17T05:46:10.304Z,12.50
2022-10-17T05:49:19.436Z,12.78
2022-10-17T05:52:12.881Z,13.06
2022-10-17T05:54:49.043Z,13.42
2022-10-17T06:03:54.837Z,13.48
2022-10-17T06:06:29.222Z,13.30
2022-10-17T06:09:01.147Z,13.19
2022-10-17T06:11:46.720Z,12.98
2022-10-17T06:14:44.684Z,12.84
2022-10-17T06:17:22.355Z,12.73
2022-10-17T06:22:54.239Z,12.84
2022-10-17T06:25:24.161Z,12.93
2022-10-17T06:30:22.584Z,13.00
2022-10-17T06:32:53.517Z,13.07
2022-10-17T06:35:21.961Z,13.14
2022-10-17T06:37:50.059Z,13.27
2022-10-17T06:40:18.826Z,13.26
2022-10-17T06:42:47.548Z,13.23
2022-10-17T06:45:26.230Z,13.20
2022-10-17T06:48:02.768Z,13.17
2022-10-17T06:50:44.383Z,13.14
2022-10-17T06:53:18.291Z,13.20
2022-10-17T06:55:54.940Z,13.33
2022-10-17T06:58:42.118Z,13.56
2022-10-17T07:01:13.473Z,13.73
2022-10-17T07:03:43.227Z,13.94
2022-10-17T07:06:11.385Z,14.08
2022-10-17T07:08:45.559Z,13.94
2022-10-17T07:11:18.721Z,13.88
2022-10-17T07:13:48.336Z,14.00
2022-10-17T07:16:16.825Z,14.12
2022-10-17T07:18:51.813Z,14.09
2022-10-17T07:21:20.650Z,14.11
2022-10-17T07:23:48.589Z,14.16
2022-10-17T07:26:18.466Z,14.33
2022-10-17T07:28:51.263Z,14.49
2022-10-17T07:31:26.734Z,14.68
2022-10-17T07:33:54.953Z,14.91
2022-10-17T07:36:23.422Z,14.98
2022-10-17T07:38:52.514Z,15.04
2022-10-17T07:41:21.934Z,15.13
2022-10-17T07:43:50.809Z,15.21
2022-10-17T07:46:20.531Z,15.33
2022-10-17T07:48:48.636Z,15.34
2022-10-17T07:51:19.387Z,15.47
2022-10-17T07:53:48.903Z,15.68
2022-10-17T07:56:17.470Z,15.89
2022-10-17T07:58:45.636Z,16.06
2022-10-17T08:01:15.391Z,16.30
2022-10-17T08:03:45.593Z,16.56
2022-10-17T08:06:13.656Z,16.75
2022-10-17T08:08:42.546Z,16.89
2022-10-17T08:11:13.606Z,17.11
2022-10-17T08:13:41.941Z,17.24
2022-10-17T08:16:13.097Z,17.32
2022-10-17T08:18:43.425Z,17.47
2022-10-17T08:21:12.879Z,17.59
2022-10-17T08:23:41.097Z,17.74
2022-10-17T08:26:12.417Z,17.89
2022-10-17T08:28:41.067Z,18.04
2022-10-17T08:31:18.275Z,18.29
2022-10-17T08:33:48.338Z,18.42
2022-10-17T08:36:20.501Z,18.45
2022-10-17T08:38:52.584Z,18.49
2022-10-17T08:41:48.598Z,18.51
2022-10-17T08:44:57.283Z,18.59
2022-10-17T08:47:32.563Z,18.59
2022-10-17T08:50:05.717Z,18.76
2022-10-17T08:53:06.301Z,18.83
2022-10-17T08:55:49.521Z,18.96
2022-10-17T08:58:29.721Z,18.99
2022-10-17T09:01:12.928Z,18.87
2022-10-17T09:04:10.175Z,18.82
2022-10-17T09:06:46.478Z,18.95
2022-10-17T09:09:22.825Z,19.06
2022-10-17T09:11:59.481Z,19.26
2022-10-17T09:15:22.162Z,19.34
2022-10-17T09:18:13.203Z,19.50
2022-10-17T09:20:49.469Z,19.71
2022-10-17T09:23:22.801Z,19.59
2022-10-17T09:25:59.096Z,19.54
2022-10-17T09:28:38.141Z,19.65
2022-10-17T09:31:20.531Z,19.81
2022-10-17T09:33:55.340Z,19.79
2022-10-17T09:36:37.189Z,19.88
2022-10-17T09:39:19.440Z,19.98
2022-10-17T09:41:56.696Z,20.07
2022-10-17T09:44:45.230Z,20.14
2022-10-17T09:47:47.625Z,19.89
2022-10-17T09:50:24.359Z,19.88
2022-10-17T09:52:59.186Z,19.93
2022-10-17T09:55:42.477Z,19.86
2022-10-17T09:58:15.616Z,19.92
2022-10-17T10:01:01.890Z,20.04
2022-10-17T10:06:43.759Z,19.82
2022-10-17T10:09:39.471Z,19.81
2022-10-17T10:12:55.372Z,19.80
2022-10-17T10:19:40.039Z,20.15
2022-10-17T10:22:38.811Z,20.25
2022-10-17T10:25:19.579Z,20.21
2022-10-17T13:11:55.548Z,20.22
2022-10-17T13:14:57.825Z,20.12
2022-10-17T13:18:43.979Z,20.05
2022-10-17T13:39:55.681Z,19.63
2022-10-17T13:42:30.364Z,19.54
2022-10-17T13:45:02.942Z,19.51
2022-10-17T13:47:42.425Z,19.41
2022-10-17T13:50:44.233Z,19.33
2022-10-17T13:59:56.186Z,19.04
2022-10-17T14:02:28.791Z,18.93
2022-10-17T14:05:18.779Z,18.82
2022-10-17T14:15:29.944Z,18.71
2022-10-17T14:18:21.317Z,18.70
2022-10-17T14:28:36.465Z,18.60
2022-10-17T14:51:56.965Z,18.06
2022-10-17T15:04:45.000Z,17.77
2022-10-17T15:07:18.369Z,17.69
2022-10-17T15:09:52.368Z,17.59
2022-10-17T15:12:25.490Z,17.49
2022-10-17T15:14:55.648Z,17.37
2022-10-17T15:17:31.578Z,17.15
2022-10-17T15:20:01.639Z,16.96
2022-10-17T15:22:34.349Z,16.75
2022-10-17T15:28:42.510Z,16.38
2022-10-17T15:31:16.776Z,16.13
2022-10-17T15:33:55.071Z,15.96
2022-10-17T15:36:41.144Z,15.82
2022-10-17T15:39:12.653Z,15.66
2022-10-17T15:41:43.784Z,15.49
2022-10-17T15:44:12.002Z,15.35
2022-10-17T15:46:41.131Z,15.22
2022-10-17T15:49:15.017Z,15.08
2022-10-17T15:51:43.280Z,14.94
2022-10-17T15:54:14.036Z,14.80
2022-10-17T15:56:43.463Z,14.67
2022-10-17T15:59:33.481Z,14.56
2022-10-17T16:02:33.408Z,14.45
2022-10-17T16:05:06.114Z,14.34
2022-10-17T16:08:05.128Z,14.25
2022-10-17T16:10:44.602Z,14.12
2022-10-17T16:13:26.522Z,14.02
2022-10-17T16:16:01.814Z,13.91
2022-10-17T16:22:47.569Z,13.71
2022-10-17T16:25:40.046Z,13.57
2022-10-17T16:28:17.990Z,13.44
2022-10-17T16:30:50.522Z,13.34
2022-10-17T16:33:18.465Z,13.25
2022-10-17T16:35:49.646Z,13.13
2022-10-17T16:38:20.234Z,13.03
2022-10-17T16:40:51.647Z,12.92
2022-10-17T16:43:19.711Z,12.82
2022-10-17T16:45:47.914Z,12.73
2022-10-17T16:48:17.177Z,12.62
2022-10-17T16:50:45.356Z,12.55
2022-10-17T16:53:13.259Z,12.46
2022-10-17T16:55:44.889Z,12.39
2022-10-17T16:58:17.416Z,12.32
2022-10-17T17:00:45.551Z,12.25
2022-10-17T17:03:13.603Z,12.16
2022-10-17T17:05:41.836Z,12.11
2022-10-17T17:08:25.959Z,12.04
2022-10-17T17:11:38.815Z,11.97
2022-10-17T17:14:10.535Z,11.89
2022-10-17T17:20:17.031Z,11.80
2022-10-17T17:22:56.669Z,11.77
2022-10-17T17:25:24.975Z,11.67
2022-10-17T17:27:52.903Z,11.62
2022-10-17T17:30:20.729Z,11.59
2022-10-17T17:32:48.452Z,11.56
2022-10-17T17:35:16.173Z,11.53
2022-10-17T17:37:45.804Z,11.52
2022-10-17T17:40:13.696Z,11.49
2022-10-17T17:42:47.305Z,11.47
2022-10-17T17:45:15.891Z,11.45
2022-10-17T17:47:43.413Z,11.39
2022-10-17T17:50:11.299Z,11.34
2022-10-17T17:52:46.658Z,11.30
2022-10-17T17:55:14.907Z,11.23
2022-10-17T17:57:42.937Z,11.17
2022-10-17T18:00:15.849Z,11.13
2022-10-17T18:02:45.460Z,11.07
2022-10-17T18:05:14.055Z,11.04
2022-10-17T18:07:42.094Z,11.01
2022-10-17T18:12:40.490Z,10.94
2022-10-17T18:15:09.047Z,10.91
2022-10-17T18:17:38.934Z,10.89
2022-10-17T18:20:08.225Z,10.87
2022-10-17T18:22:36.184Z,10.82
2022-10-17T18:25:06.070Z,10.80
2022-10-17T18:27:33.873Z,10.79
2022-10-17T18:30:01.535Z,10.75
2022-10-17T18:32:33.663Z,10.73
2022-10-17T18:35:01.746Z,10.72
2022-10-17T18:37:29.885Z,10.68
2022-10-17T18:39:58.164Z,10.64
2022-10-17T18:42:26.041Z,10.59
2022-10-17T18:44:53.959Z,10.57
2022-10-17T18:47:24.766Z,10.53
2022-10-17T18:49:53.058Z,10.48
2022-10-17T18:52:20.546Z,10.44
2022-10-17T18:54:48.518Z,10.43
2022-10-17T18:57:21.474Z,10.39
2022-10-17T18:59:49.023Z,10.35
2022-10-17T19:02:16.790Z,10.33
2022-10-17T19:04:44.956Z,10.30
2022-10-17T19:07:12.560Z,10.26
2022-10-17T19:09:40.275Z,10.21
2022-10-17T19:12:08.167Z,10.15
2022-10-17T19:14:38.170Z,10.11
2022-10-17T19:17:06.045Z,10.07
2022-10-17T19:19:34.572Z,10.01
2022-10-17T19:22:03.707Z,9.97
2022-10-17T19:24:31.614Z,9.92
2022-10-17T19:27:01.908Z,9.88
2022-10-17T19:29:31.374Z,9.83
2022-10-17T19:32:00.463Z,9.79
2022-10-17T19:34:28.705Z,9.74
2022-10-17T19:36:56.844Z,9.69
2022-10-17T19:39:26.015Z,9.65
2022-10-17T19:41:53.701Z,9.60
2022-10-17T19:44:21.462Z,9.58
2022-10-17T19:46:49.537Z,9.54
2022-10-17T19:49:17.851Z,9.50
2022-10-17T19:51:45.812Z,9.47
2022-10-17T19:54:14.701Z,9.43
2022-10-17T19:56:42.904Z,9.41
2022-10-17T19:59:14.714Z,9.39
2022-10-17T20:01:43.173Z,9.37
2022-10-17T20:04:12.300Z,9.34
2022-10-17T20:06:41.305Z,9.29
2022-10-17T20:09:13.957Z,9.25
2022-10-17T20:11:40.560Z,9.22
2022-10-17T20:14:08.620Z,9.20
2022-10-17T20:16:36.729Z,9.17
2022-10-17T20:19:08.974Z,9.15
2022-10-17T20:21:39.043Z,9.13
2022-10-17T20:24:11.737Z,9.11
2022-10-17T20:26:40.716Z,9.08
2022-10-17T20:29:16.612Z,9.05
2022-10-17T20:31:45.980Z,9.02
2022-10-17T20:34:16.186Z,9.00
2022-10-17T20:36:44.218Z,8.98
2022-10-17T20:39:14.392Z,8.96
2022-10-17T20:41:43.156Z,8.93
2022-10-17T20:44:12.090Z,8.90
2022-10-17T20:46:45.217Z,8.87
2022-10-17T20:49:14.625Z,8.84
2022-10-17T20:51:42.555Z,8.79
2022-10-17T20:54:11.312Z,8.75
2022-10-17T20:56:39.297Z,8.73
2022-10-17T20:59:11.837Z,8.71
2022-10-17T21:01:40.106Z,8.68
2022-10-17T21:04:40.594Z,8.66
2022-10-17T21:06:37.986Z,8.63
2022-10-17T21:09:06.876Z,8.60
2022-10-17T21:11:34.588Z,8.57
2022-10-17T21:14:05.640Z,8.55
2022-10-17T21:16:36.192Z,8.51
2022-10-17T21:19:05.655Z,8.49
2022-10-17T21:21:37.093Z,8.46
2022-10-17T21:24:11.534Z,8.44
2022-10-17T21:26:40.904Z,8.42
2022-10-17T21:29:13.281Z,8.39
2022-10-17T21:31:43.752Z,8.36
2022-10-17T21:34:21.443Z,8.34
2022-10-17T21:36:49.383Z,8.30
2022-10-17T21:39:17.844Z,8.27
2022-10-17T21:41:45.656Z,8.24
2022-10-17T21:44:20.778Z,8.21
2022-10-17T21:46:48.436Z,8.18
2022-10-17T21:49:20.348Z,8.12
2022-10-17T21:51:48.604Z,8.09
2022-10-17T21:54:18.436Z,8.03
2022-10-17T21:56:46.662Z,7.98
2022-10-17T21:59:14.355Z,7.93
2022-10-17T22:01:45.059Z,7.89
2022-10-17T22:04:16.834Z,7.87
2022-10-17T22:06:46.743Z,7.83
2022-10-17T22:09:19.912Z,7.80
2022-10-17T22:11:52.553Z,7.76
2022-10-17T22:14:24.121Z,7.74
2022-10-17T22:16:52.553Z,7.72
2022-10-17T22:19:24.483Z,7.69
2022-10-17T22:21:52.787Z,7.68
2022-10-17T22:26:48.939Z,7.64
2022-10-17T22:29:17.249Z,7.61
2022-10-17T22:31:45.369Z,7.60
2022-10-17T22:34:15.875Z,7.60
2022-10-17T22:36:44.202Z,7.60
2022-10-17T22:39:12.341Z,7.59
2022-10-17T22:41:40.354Z,7.59
2022-10-17T22:44:08.269Z,7.59
2022-10-17T22:46:36.301Z,7.59
2022-10-17T22:49:04.175Z,7.58
2022-10-17T22:51:32.070Z,7.59
2022-10-17T22:54:00.207Z,7.60
2022-10-17T22:56:28.035Z,7.59
2022-10-17T22:58:55.953Z,7.60
2022-10-17T23:01:25.473Z,7.59
2022-10-17T23:03:53.311Z,7.58
2022-10-17T23:06:21.637Z,7.58
2022-10-17T23:08:49.806Z,7.56
2022-10-17T23:11:17.941Z,7.54
2022-10-17T23:13:45.710Z,7.52
2022-10-17T23:16:13.848Z,7.51
2022-10-17T23:18:43.173Z,7.48
2022-10-17T23:21:11.452Z,7.48
2022-10-17T23:23:38.788Z,7.45
2022-10-17T23:26:10.645Z,7.43
2022-10-17T23:28:39.485Z,7.40
2022-10-17T23:31:16.406Z,7.39
2022-10-17T23:33:47.919Z,7.35
2022-10-17T23:36:20.385Z,7.34
2022-10-17T23:38:48.943Z,7.31
2022-10-17T23:41:17.201Z,7.30
2022-10-17T23:43:45.225Z,7.28
2022-10-17T23:46:13.561Z,7.26
2022-10-17T23:48:41.592Z,7.25
2022-10-17T23:51:10.416Z,7.22
2022-10-17T23:53:39.335Z,7.21
2022-10-17T23:56:09.407Z,7.19
2022-10-17T23:58:38.696Z,7.18
